createdAt,value
2019-04-10T00:01:15.135Z,2.50
2019-04-10T00:03:46.231Z,2.50
2019-04-10T00:06:17.899Z,2.40
2019-04-10T00:08:48.137Z,2.30
2019-04-10T00:11:18.618Z,2.30
2019-04-10T00:13:49.052Z,2.30
2019-04-10T00:16:20.899Z,2.40
2019-04-10T00:18:51.281Z,2.30
2019-04-10T00:21:21.353Z,2.50
2019-04-10T00:23:51.298Z,2.50
2019-04-10T00:26:21.768Z,2.50
2019-04-10T00:28:52.047Z,2.30
2019-04-10T00:31:23.013Z,2.30
2019-04-10T00:33:53.765Z,2.10
2019-04-10T00:36:24.762Z,2.00
2019-04-10T00:38:55.839Z,2.00
2019-04-10T00:41:26.158Z,1.90
2019-04-10T00:43:57.367Z,1.80
2019-04-10T00:46:28.316Z,1.80
2019-04-10T00:48:58.691Z,1.80
2019-04-10T00:51:29.788Z,1.80
2019-04-10T00:54:00.052Z,1.80
2019-04-10T00:56:30.362Z,1.70
2019-04-10T00:59:00.389Z,1.60
2019-04-10T01:01:31.945Z,1.70
2019-04-10T01:04:02.715Z,1.70
2019-04-10T01:06:32.808Z,1.60
2019-04-10T01:09:04.754Z,1.70
2019-04-10T01:11:36.100Z,1.70
2019-04-10T01:14:06.164Z,1.70
2019-04-10T01:16:36.191Z,1.60
2019-04-10T01:19:06.488Z,1.60
2019-04-10T01:21:36.788Z,1.60
2019-04-10T01:24:06.865Z,1.50
2019-04-10T01:26:37.067Z,1.60
2019-04-10T01:29:07.242Z,1.60
2019-04-10T01:31:37.334Z,1.70
2019-04-10T01:34:07.496Z,1.70
2019-04-10T01:36:37.652Z,1.70
2019-04-10T01:39:10.607Z,1.70
2019-04-10T01:41:41.756Z,1.70
2019-04-10T01:44:11.857Z,1.70
2019-04-10T01:46:42.394Z,1.60
2019-04-10T01:49:13.498Z,1.60
2019-04-10T01:51:43.616Z,1.60
2019-04-10T01:54:13.701Z,1.60
2019-04-10T01:56:43.977Z,1.50
2019-04-10T01:59:15.925Z,1.50
2019-04-10T02:01:56.828Z,1.40
2019-04-10T02:04:26.961Z,1.30
2019-04-10T02:06:57.904Z,1.20
2019-04-10T02:09:28.305Z,1.10
2019-04-10T02:11:58.550Z,1.10
2019-04-10T02:14:29.993Z,1.10
2019-04-10T02:17:00.352Z,1.10
2019-04-10T02:19:30.404Z,1.10
2019-04-10T02:22:00.667Z,1.10
2019-04-10T02:24:31.323Z,1.10
2019-04-10T02:27:02.346Z,1.10
2019-04-10T02:29:33.525Z,1.10
2019-04-10T02:32:04.138Z,1.00
2019-04-10T02:34:34.613Z,1.00
2019-04-10T02:37:04.732Z,0.90
2019-04-10T02:39:40.544Z,1.00
2019-04-10T02:42:08.212Z,1.00
2019-04-10T02:44:38.576Z,0.90
2019-04-10T02:47:08.642Z,0.90
2019-04-10T02:49:40.220Z,1.00
2019-04-10T02:52:11.055Z,0.90
2019-04-10T02:54:43.549Z,0.80
2019-04-10T02:57:13.749Z,1.00
2019-04-10T02:59:45.377Z,0.90
2019-04-10T03:02:16.761Z,0.90
2019-04-10T03:04:46.780Z,0.80
2019-04-10T03:07:17.759Z,0.80
2019-04-10T03:10:00.448Z,0.80
2019-04-10T03:12:21.723Z,0.80
2019-04-10T03:14:52.702Z,0.70
2019-04-10T03:17:24.012Z,0.80
2019-04-10T03:19:54.101Z,0.80
2019-04-10T03:22:24.969Z,0.80
2019-04-10T03:24:56.820Z,0.90
2019-04-10T03:27:28.025Z,0.90
2019-04-10T03:29:58.179Z,0.90
2019-04-10T03:32:58.065Z,0.90
2019-04-10T03:35:30.494Z,0.90
2019-04-10T03:38:01.514Z,0.90
2019-04-10T03:40:32.014Z,0.80
2019-04-10T03:43:03.337Z,0.70
2019-04-10T03:45:34.567Z,0.80
2019-04-10T03:48:04.913Z,0.80
2019-04-10T03:50:36.190Z,0.80
2019-04-10T03:53:07.530Z,0.90
2019-04-10T03:55:38.424Z,1.00
2019-04-10T03:58:09.286Z,1.00
2019-04-10T04:00:40.496Z,1.00
2019-04-10T04:03:10.716Z,1.00
2019-04-10T04:05:40.812Z,1.20
2019-04-10T04:08:11.136Z,1.10
2019-04-10T04:10:41.171Z,1.00
2019-04-10T04:13:12.268Z,0.90
2019-04-10T04:15:42.412Z,0.90
2019-04-10T04:18:12.979Z,0.90
2019-04-10T04:20:43.369Z,0.90
2019-04-10T04:23:13.785Z,0.90
2019-04-10T04:25:43.956Z,0.80
2019-04-10T04:28:14.744Z,0.80
2019-04-10T04:30:45.681Z,0.70
2019-04-10T04:33:16.746Z,0.60
2019-04-10T04:35:47.410Z,0.60
2019-04-10T04:38:17.837Z,0.50
2019-04-10T04:40:48.366Z,0.50
2019-04-10T04:43:18.740Z,0.60
2019-04-10T04:45:48.833Z,0.60
2019-04-10T04:48:19.515Z,0.80
2019-04-10T04:50:50.019Z,0.80
2019-04-10T04:53:20.168Z,0.90
2019-04-10T04:55:51.298Z,1.10
2019-04-10T04:58:22.290Z,1.20
2019-04-10T05:00:52.629Z,1.10
2019-04-10T05:03:22.941Z,1.20
2019-04-10T05:05:53.931Z,1.20
2019-04-10T05:08:24.271Z,1.40
2019-04-10T05:10:56.070Z,1.40
2019-04-10T05:13:27.143Z,1.70
2019-04-10T05:15:57.605Z,1.80
2019-04-10T05:18:28.132Z,2.00
2019-04-10T05:20:58.842Z,2.30
2019-04-10T05:23:28.961Z,2.40
2019-04-10T05:25:59.566Z,2.40
2019-04-10T05:28:31.050Z,2.10
2019-04-10T05:31:01.376Z,1.90
2019-04-10T05:33:31.444Z,1.80
2019-04-10T05:36:01.485Z,1.90
2019-04-10T05:38:31.614Z,1.90
2019-04-10T05:41:01.693Z,1.80
2019-04-10T05:43:31.997Z,1.90
2019-04-10T05:46:02.823Z,2.10
2019-04-10T05:48:33.474Z,2.10
2019-04-10T05:51:05.701Z,2.10
2019-04-10T05:53:36.467Z,2.00
2019-04-10T05:56:06.764Z,1.80
2019-04-10T05:58:37.084Z,1.80
2019-04-10T06:01:09.515Z,1.80
2019-04-10T06:03:40.736Z,1.90
2019-04-10T06:06:10.953Z,1.90
2019-04-10T06:08:41.483Z,1.90
2019-04-10T06:11:13.580Z,2.10
2019-04-10T06:13:43.775Z,2.40
2019-04-10T06:16:13.844Z,2.40
2019-04-10T06:18:45.083Z,2.70
2019-04-10T06:21:15.752Z,2.90
2019-04-10T06:23:45.791Z,3.00
2019-04-10T06:26:17.037Z,2.70
2019-04-10T06:28:47.136Z,2.50
2019-04-10T06:31:17.199Z,2.40
2019-04-10T06:33:47.235Z,2.30
2019-04-10T06:36:17.537Z,2.20
2019-04-10T06:38:48.153Z,2.30
2019-04-10T06:41:19.200Z,2.50
2019-04-10T06:43:49.619Z,2.60
2019-04-10T06:46:20.134Z,2.80
2019-04-10T06:48:50.231Z,2.70
2019-04-10T06:51:21.719Z,2.50
2019-04-10T06:54:00.800Z,2.70
2019-04-10T06:56:23.567Z,2.90
2019-04-10T06:58:53.612Z,3.00
2019-04-10T07:01:26.099Z,3.10
2019-04-10T07:04:02.075Z,3.10
2019-04-10T07:06:44.635Z,3.10
2019-04-10T07:08:59.150Z,3.10
2019-04-10T07:11:31.372Z,3.40
2019-04-10T07:14:01.593Z,3.10
2019-04-10T07:16:34.016Z,3.50
2019-04-10T07:19:06.171Z,4.00
2019-04-10T07:21:37.572Z,3.80
2019-04-10T07:24:10.880Z,3.60
2019-04-10T07:26:43.088Z,3.60
2019-04-10T07:29:16.387Z,3.60
2019-04-10T07:31:44.588Z,3.60
2019-04-10T07:34:15.154Z,3.70
2019-04-10T07:36:46.586Z,3.90
2019-04-10T07:39:17.953Z,3.90
2019-04-10T07:41:47.981Z,3.90
2019-04-10T07:44:18.269Z,4.20
2019-04-10T07:46:48.815Z,4.50
2019-04-10T07:49:20.535Z,4.70
2019-04-10T07:51:51.979Z,5.00
2019-04-10T07:54:22.605Z,4.50
2019-04-10T07:56:51.588Z,4.70
2019-04-10T07:59:21.677Z,5.00
2019-04-10T08:01:51.775Z,5.30
2019-04-10T08:04:22.617Z,5.20
2019-04-10T08:06:52.752Z,5.00
2019-04-10T08:09:23.048Z,4.80
2019-04-10T08:11:53.072Z,4.70
2019-04-10T08:14:23.810Z,5.00
2019-04-10T08:16:55.223Z,5.20
2019-04-10T08:19:27.581Z,5.40
2019-04-10T08:21:57.740Z,5.40
2019-04-10T08:24:28.046Z,5.50
2019-04-10T08:26:58.104Z,5.90
2019-04-10T08:29:28.192Z,6.50
2019-04-10T08:31:59.198Z,6.30
2019-04-10T08:34:31.377Z,6.00
2019-04-10T08:37:01.812Z,6.00
2019-04-10T08:39:40.266Z,6.00
2019-04-10T08:42:03.873Z,5.90
2019-04-10T08:44:34.172Z,6.10
2019-04-10T08:47:04.296Z,5.90
2019-04-10T08:49:34.742Z,5.60
2019-04-10T08:52:06.111Z,5.40
2019-04-10T08:54:36.407Z,5.50
2019-04-10T08:57:07.316Z,5.70
2019-04-10T08:59:38.265Z,6.10
2019-04-10T09:02:09.421Z,5.90
2019-04-10T09:04:39.504Z,5.80
2019-04-10T09:07:09.545Z,5.90
2019-04-10T09:09:39.588Z,5.80
2019-04-10T09:12:09.876Z,5.80
2019-04-10T09:14:39.911Z,6.40
2019-04-10T09:17:11.102Z,6.80
2019-04-10T09:19:42.125Z,6.60
2019-04-10T09:22:12.394Z,6.50
2019-04-10T09:24:42.681Z,6.20
2019-04-10T09:27:13.094Z,6.20
2019-04-10T09:29:43.172Z,6.50
2019-04-10T09:32:14.559Z,6.50
2019-04-10T09:34:46.623Z,6.70
2019-04-10T09:37:17.796Z,6.50
2019-04-10T09:39:50.923Z,6.60
2019-04-10T09:42:19.976Z,6.90
2019-04-10T09:44:50.683Z,6.50
2019-04-10T09:47:20.995Z,6.60
2019-04-10T09:49:51.430Z,6.70
2019-04-10T09:52:21.743Z,7.20
2019-04-10T09:54:53.101Z,8.00
2019-04-10T09:57:24.536Z,8.40
2019-04-10T09:59:56.717Z,8.40
2019-04-10T10:02:27.461Z,8.10
2019-04-10T10:04:58.006Z,7.90
2019-04-10T10:07:28.545Z,7.60
2019-04-10T10:10:00.738Z,7.80
2019-04-10T10:12:30.401Z,7.90
2019-04-10T10:15:00.448Z,7.90
2019-04-10T10:17:30.821Z,8.00
2019-04-10T10:20:01.820Z,8.20
2019-04-10T10:22:32.155Z,7.80
2019-04-10T10:25:02.935Z,8.00
2019-04-10T10:27:34.265Z,7.90
2019-04-10T10:30:05.062Z,8.40
2019-04-10T10:32:35.313Z,8.20
2019-04-10T10:35:07.070Z,8.30
2019-04-10T10:37:38.979Z,8.60
2019-04-10T10:40:10.139Z,8.70
2019-04-10T10:42:41.558Z,8.90
2019-04-10T10:45:12.468Z,8.90
2019-04-10T10:47:42.861Z,8.60
2019-04-10T10:50:13.164Z,8.60
2019-04-10T10:52:43.837Z,9.10
2019-04-10T10:55:14.276Z,9.20
2019-04-10T10:57:44.303Z,9.10
2019-04-10T11:00:16.870Z,8.90
2019-04-10T11:02:47.252Z,8.80
2019-04-10T11:05:17.075Z,8.90
2019-04-10T11:07:47.115Z,9.10
2019-04-10T11:10:20.900Z,9.30
2019-04-10T11:12:48.884Z,9.10
2019-04-10T11:15:18.943Z,8.90
2019-04-10T11:17:49.992Z,8.80
2019-04-10T11:20:20.584Z,8.90
2019-04-10T11:22:50.836Z,8.60
2019-04-10T11:25:22.130Z,8.50
2019-04-10T11:27:53.668Z,8.30
2019-04-10T11:30:24.903Z,8.80
2019-04-10T11:32:55.254Z,9.20
2019-04-10T11:35:26.347Z,9.00
2019-04-10T11:37:59.291Z,8.60
2019-04-10T11:40:29.696Z,8.60
2019-04-10T11:43:03.323Z,8.60
2019-04-10T11:45:40.659Z,8.50
2019-04-10T11:48:04.311Z,8.60
2019-04-10T11:50:35.044Z,9.50
2019-04-10T11:53:06.819Z,10.20
2019-04-10T11:55:43.683Z,9.60
2019-04-10T11:58:11.262Z,9.10
2019-04-10T12:00:50.501Z,9.00
2019-04-10T12:03:15.398Z,9.30
2019-04-10T12:05:47.953Z,9.70
2019-04-10T12:08:40.272Z,9.50
2019-04-10T12:13:21.986Z,9.50
2019-04-10T12:15:52.596Z,9.80
2019-04-10T12:18:23.229Z,10.40
2019-04-10T12:20:53.634Z,9.80
2019-04-10T12:23:23.724Z,9.40
2019-04-10T12:25:54.008Z,9.20
2019-04-10T12:28:30.732Z,9.50
2019-04-10T12:31:01.770Z,9.70
2019-04-10T12:33:32.040Z,10.00
2019-04-10T12:36:02.458Z,9.80
2019-04-10T12:38:32.608Z,9.70
2019-04-10T12:41:03.384Z,9.40
2019-04-10T12:43:33.440Z,9.10
2019-04-10T12:46:04.559Z,9.10
2019-04-10T12:48:34.761Z,9.20
2019-04-10T12:51:05.644Z,9.80
2019-04-10T12:53:35.935Z,10.30
2019-04-10T12:56:06.098Z,10.00
2019-04-10T12:58:37.113Z,9.30
2019-04-10T13:01:08.727Z,9.00
2019-04-10T13:03:39.007Z,8.80
2019-04-10T13:06:09.553Z,8.70
2019-04-10T13:08:54.774Z,8.70
2019-04-10T13:11:12.120Z,8.60
2019-04-10T13:13:44.229Z,8.70
2019-04-10T13:16:14.410Z,9.10
2019-04-10T13:18:44.771Z,8.90
2019-04-10T13:21:14.951Z,8.60
2019-04-10T13:23:44.976Z,8.70
2019-04-10T13:26:15.618Z,8.90
2019-04-10T13:28:45.656Z,8.90
2019-04-10T13:31:15.814Z,8.70
2019-04-10T13:33:46.876Z,8.90
2019-04-10T13:36:17.584Z,9.00
2019-04-10T13:38:48.543Z,9.10
2019-04-10T13:41:18.820Z,9.20
2019-04-10T13:43:49.818Z,9.10
2019-04-10T13:46:20.569Z,8.90
2019-04-10T13:48:50.642Z,9.00
2019-04-10T13:51:21.342Z,9.00
2019-04-10T13:53:52.340Z,9.00
2019-04-10T13:56:23.247Z,9.50
2019-04-10T13:58:53.380Z,9.90
2019-04-10T14:01:28.324Z,10.10
2019-04-10T14:03:58.689Z,10.30
2019-04-10T14:06:29.683Z,9.90
2019-04-10T14:09:15.642Z,9.30
2019-04-10T14:11:33.425Z,9.20
2019-04-10T14:14:04.485Z,9.00
2019-04-10T14:16:35.112Z,8.80
2019-04-10T14:19:06.375Z,8.80
2019-04-10T14:21:37.552Z,8.70
2019-04-10T14:24:07.820Z,8.70
2019-04-10T14:26:49.585Z,8.70
2019-04-10T14:29:20.680Z,8.60
2019-04-10T14:31:56.709Z,8.90
2019-04-10T14:34:26.800Z,9.20
2019-04-10T14:36:57.194Z,9.20
2019-04-10T14:39:28.268Z,9.50
2019-04-10T14:41:58.564Z,9.70
2019-04-10T14:44:28.693Z,9.90
2019-04-10T14:47:00.144Z,10.10
2019-04-10T14:49:31.350Z,10.30
2019-04-10T14:52:01.489Z,10.00
2019-04-10T14:54:32.534Z,9.70
2019-04-10T14:57:02.626Z,9.30
2019-04-10T14:59:33.767Z,9.00
2019-04-10T15:02:06.397Z,9.00
2019-04-10T15:04:37.376Z,9.20
2019-04-10T15:07:08.089Z,9.20
2019-04-10T15:09:39.440Z,9.10
2019-04-10T15:12:10.078Z,9.00
2019-04-10T15:14:40.672Z,9.10
2019-04-10T15:17:10.964Z,9.20
2019-04-10T15:19:41.264Z,9.40
2019-04-10T15:22:11.814Z,9.60
2019-04-10T15:24:42.712Z,9.40
2019-04-10T15:27:13.231Z,9.60
2019-04-10T15:29:44.933Z,9.50
2019-04-10T15:32:15.075Z,9.10
2019-04-10T15:34:46.029Z,9.10
2019-04-10T15:37:17.118Z,9.00
2019-04-10T15:39:47.243Z,8.80
2019-04-10T15:42:17.440Z,8.70
2019-04-10T15:44:48.117Z,8.70
2019-04-10T15:47:22.548Z,8.90
2019-04-10T15:49:51.497Z,9.00
2019-04-10T15:52:22.857Z,9.00
2019-04-10T15:54:53.867Z,9.00
2019-04-10T15:57:24.929Z,9.20
2019-04-10T15:59:55.031Z,9.00
2019-04-10T16:02:25.864Z,9.00
2019-04-10T16:04:57.177Z,8.90
2019-04-10T16:07:28.744Z,9.00
2019-04-10T16:10:06.884Z,9.00
2019-04-10T16:12:38.124Z,8.80
2019-04-10T16:15:08.937Z,8.60
2019-04-10T16:17:46.331Z,8.50
2019-04-10T16:20:25.944Z,8.40
2019-04-10T16:23:14.357Z,8.40
2019-04-10T16:25:47.748Z,8.40
2019-04-10T16:28:17.968Z,8.40
2019-04-10T16:30:48.661Z,8.20
2019-04-10T16:33:19.731Z,8.20
2019-04-10T16:35:50.237Z,8.20
2019-04-10T16:38:20.604Z,8.20
2019-04-10T16:40:50.639Z,8.20
2019-04-10T16:43:20.833Z,8.10
2019-04-10T16:45:51.530Z,8.10
2019-04-10T16:48:22.126Z,8.20
2019-04-10T16:50:53.894Z,8.30
2019-04-10T16:53:24.308Z,8.30
2019-04-10T16:55:54.334Z,8.30
2019-04-10T16:58:26.128Z,8.20
2019-04-10T17:00:56.475Z,8.10
2019-04-10T17:03:27.531Z,8.10
2019-04-10T17:05:57.916Z,8.10
2019-04-10T17:08:27.973Z,8.10
2019-04-10T17:10:58.815Z,8.00
2019-04-10T17:13:29.473Z,8.00
2019-04-10T17:16:01.705Z,8.10
2019-04-10T17:18:32.939Z,8.30
2019-04-10T17:21:03.244Z,8.20
2019-04-10T17:23:34.437Z,8.00
2019-04-10T17:26:04.530Z,7.80
2019-04-10T17:28:34.600Z,7.80
2019-04-10T17:31:05.035Z,7.70
2019-04-10T17:33:36.233Z,7.70
2019-04-10T17:36:07.703Z,7.70
2019-04-10T17:38:38.622Z,7.70
2019-04-10T17:41:09.222Z,7.50
2019-04-10T17:43:39.538Z,7.50
2019-04-10T17:46:09.656Z,7.40
2019-04-10T17:48:40.309Z,7.40
2019-04-10T17:51:10.412Z,7.40
2019-04-10T17:53:41.976Z,7.30
2019-04-10T17:56:12.362Z,7.20
2019-04-10T17:58:43.434Z,7.30
2019-04-10T18:01:16.738Z,7.30
2019-04-10T18:03:52.181Z,7.20
2019-04-10T18:06:19.396Z,7.20
2019-04-10T18:08:49.937Z,7.20
2019-04-10T18:11:20.298Z,7.20
2019-04-10T18:13:51.078Z,7.10
2019-04-10T18:16:22.074Z,7.10
2019-04-10T18:18:53.850Z,7.10
2019-04-10T18:21:24.586Z,7.10
2019-04-10T18:23:55.662Z,7.00
2019-04-10T18:26:25.842Z,7.00
2019-04-10T18:28:56.416Z,7.00
2019-04-10T18:31:27.889Z,7.00
2019-04-10T18:33:58.813Z,7.00
2019-04-10T18:36:29.891Z,7.00
2019-04-10T18:39:00.063Z,7.00
2019-04-10T18:41:30.429Z,7.00
2019-04-10T18:44:00.688Z,6.90
2019-04-10T18:46:31.970Z,6.80
2019-04-10T18:49:03.085Z,6.70
2019-04-10T18:51:34.089Z,6.70
2019-04-10T18:54:04.465Z,6.60
2019-04-10T18:56:35.468Z,6.60
2019-04-10T18:59:19.008Z,6.60
2019-04-10T19:02:01.408Z,6.60
2019-04-10T19:04:36.967Z,6.50
2019-04-10T19:07:09.050Z,6.40
2019-04-10T19:09:39.148Z,6.30
2019-04-10T19:12:09.228Z,6.40
2019-04-10T19:14:40.434Z,6.20
2019-04-10T19:17:11.126Z,6.20
2019-04-10T19:19:42.278Z,6.10
2019-04-10T19:22:15.764Z,6.00
2019-04-10T19:24:46.266Z,5.90
2019-04-10T19:27:16.404Z,5.80
2019-04-10T19:29:46.699Z,5.70
2019-04-10T19:32:24.632Z,5.70
2019-04-10T19:34:56.846Z,5.80
2019-04-10T19:37:28.395Z,5.70
2019-04-10T19:39:58.744Z,5.60
2019-04-10T19:42:30.163Z,5.60
2019-04-10T19:45:01.516Z,5.50
2019-04-10T19:47:32.613Z,5.40
2019-04-10T19:50:03.529Z,5.40
2019-04-10T19:52:33.690Z,5.40
2019-04-10T19:55:05.093Z,5.40
2019-04-10T19:57:39.474Z,5.40
2019-04-10T20:00:10.893Z,5.40
2019-04-10T20:02:42.042Z,5.40
2019-04-10T20:05:12.884Z,5.40
2019-04-10T20:07:43.115Z,5.30
2019-04-10T20:10:13.493Z,5.20
2019-04-10T20:12:44.584Z,5.20
2019-04-10T20:15:14.705Z,5.10
2019-04-10T20:17:46.392Z,5.00
2019-04-10T20:20:17.309Z,4.90
2019-04-10T20:22:48.030Z,4.80
2019-04-10T20:25:18.542Z,4.70
2019-04-10T20:27:50.018Z,4.70
2019-04-10T20:30:21.940Z,4.60
2019-04-10T20:32:52.435Z,4.60
2019-04-10T20:35:22.580Z,4.50
2019-04-10T20:37:53.358Z,4.40
2019-04-10T20:40:23.597Z,4.40
2019-04-10T20:42:54.238Z,4.30
2019-04-10T20:45:25.289Z,4.40
2019-04-10T20:47:56.112Z,4.30
2019-04-10T20:50:26.473Z,4.20
2019-04-10T20:52:57.714Z,4.10
2019-04-10T20:55:28.013Z,4.00
2019-04-10T20:57:58.080Z,4.00
2019-04-10T21:00:32.672Z,4.00
2019-04-10T21:03:02.881Z,3.90
2019-04-10T21:05:33.798Z,3.70
2019-04-10T21:08:04.266Z,3.70
2019-04-10T21:10:34.385Z,3.70
2019-04-10T21:13:04.577Z,3.70
2019-04-10T21:15:35.452Z,3.70
2019-04-10T21:18:06.903Z,3.70
2019-04-10T21:20:36.617Z,3.70
2019-04-10T21:23:05.721Z,3.70
2019-04-10T21:25:36.095Z,3.60
2019-04-10T21:28:06.692Z,3.60
2019-04-10T21:30:54.411Z,3.50
2019-04-10T21:34:02.014Z,3.50
2019-04-10T21:36:33.184Z,3.60
2019-04-10T21:39:05.198Z,3.50
2019-04-10T21:41:37.141Z,3.40
2019-04-10T21:44:09.632Z,3.50
2019-04-10T21:46:39.215Z,3.50
2019-04-10T21:49:09.245Z,3.50
2019-04-10T21:51:39.305Z,3.50
2019-04-10T21:54:09.845Z,3.40
2019-04-10T21:56:40.921Z,3.40
2019-04-10T21:59:11.143Z,3.40
2019-04-10T22:01:42.270Z,3.30
2019-04-10T22:04:12.611Z,3.30
2019-04-10T22:06:49.440Z,3.30
2019-04-10T22:09:34.936Z,3.30
2019-04-10T22:12:23.928Z,3.20
2019-04-10T22:14:44.185Z,3.10
2019-04-10T22:17:14.834Z,3.10
2019-04-10T22:19:45.476Z,3.00
2019-04-10T22:22:15.600Z,3.00
2019-04-10T22:24:46.319Z,3.00
2019-04-10T22:27:17.015Z,2.90
2019-04-10T22:29:47.208Z,2.80
2019-04-10T22:32:18.549Z,2.70
2019-04-10T22:34:48.933Z,2.60
2019-04-10T22:37:19.328Z,2.60
2019-04-10T22:39:50.455Z,2.50
2019-04-10T22:42:22.438Z,2.50
2019-04-10T22:44:52.476Z,2.50
2019-04-10T22:47:23.222Z,2.50
2019-04-10T22:49:53.604Z,2.50
2019-04-10T22:52:24.066Z,2.50
2019-04-10T22:54:55.197Z,2.40
2019-04-10T22:57:25.900Z,2.40
2019-04-10T22:59:55.959Z,2.40
2019-04-10T23:02:25.993Z,2.30
2019-04-10T23:04:56.044Z,2.30
2019-04-10T23:07:26.167Z,2.20
2019-04-10T23:09:56.923Z,2.10
2019-04-10T23:12:26.975Z,2.10
2019-04-10T23:14:57.320Z,2.10
2019-04-10T23:17:28.533Z,2.10
2019-04-10T23:19:58.912Z,2.10
2019-04-10T23:22:29.360Z,2.20
2019-04-10T23:25:00.057Z,2.10
2019-04-10T23:27:31.064Z,2.00
2019-04-10T23:30:02.489Z,2.00
2019-04-10T23:32:32.660Z,1.90
2019-04-10T23:35:03.312Z,1.90
2019-04-10T23:37:33.347Z,1.90
2019-04-10T23:40:03.486Z,1.80
2019-04-10T23:42:33.527Z,1.80
2019-04-10T23:45:05.082Z,1.50
2019-04-10T23:47:35.984Z,1.50
2019-04-10T23:50:06.712Z,1.50
2019-04-10T23:52:37.892Z,1.60
2019-04-10T23:55:08.424Z,1.50
2019-04-10T23:57:38.717Z,1.70
